Time;durP1;ratioP1;P1;durP2;ratioP2;P2;SDS_P1;SDS_P2;PMS_P1;PMS_P2;Temp;Humidity;BMP_temperature;BMP_pressure;BME280_temperature;BME280_humidity;BME280_pressure;Samples;Min_cycle;Max_cycle;Signal;HPM_P1;HPM_P2
2021/05/29 00:02:14;;;;;;;9.33;6.03;;;;;;;36.54;50.58;160811.59;1656360;86;21209;-81
2021/05/29 00:04:47;;;;;;;9.90;6.30;;;;;;;36.47;50.84;160794.19;1656319;86;21230;-81
2021/05/29 00:07:19;;;;;;;10.75;7.30;;;;;;;36.43;50.96;160783.47;1656258;85;21306;-81
2021/05/29 00:09:51;;;;;;;10.93;7.60;;;;;;;36.52;50.85;160807.59;1656173;86;21253;-82
2021/05/29 00:12:24;;;;;;;10.60;8.08;;;;;;;36.52;50.76;160806.23;1656416;86;21214;-82
2021/05/29 00:14:57;;;;;;;10.05;7.20;;;;;;;36.61;50.62;160830.36;1656036;86;21242;-80
2021/05/29 00:17:30;;;;;;;11.03;7.83;;;;;;;36.63;50.50;160835.72;1656939;85;21303;-81
2021/05/29 00:20:04;;;;;;;10.70;7.15;;;;;;;36.54;50.60;160811.59;1656417;85;21884;-80
2021/05/29 00:22:36;;;;;;;9.85;7.35;;;;;;;36.57;50.49;160819.63;1656213;86;21298;-80
2021/05/29 00:25:10;;;;;;;8.58;6.80;;;;;;;36.56;50.30;160818.31;1656064;86;21258;-81
2021/05/29 00:27:42;;;;;;;9.83;7.78;;;;;;;36.42;50.43;160780.78;1656615;85;21738;-84
2021/05/29 00:30:15;;;;;;;11.15;8.43;;;;;;;36.57;50.11;160821.00;1670482;85;21190;-81
2021/05/29 00:32:48;;;;;;;10.30;7.10;;;;;;;36.75;49.63;160867.84;1682886;85;21380;-82
2021/05/29 00:35:20;;;;;;;12.33;7.80;;;;;;;36.78;49.39;160875.84;1681634;85;21705;-82
2021/05/29 00:37:52;;;;;;;12.20;6.97;;;;;;;36.76;49.33;160871.84;1656213;86;21745;-81
2021/05/29 00:40:25;;;;;;;13.85;7.37;;;;;;;36.71;49.39;160857.13;1656714;85;21710;-81
2021/05/29 00:42:58;;;;;;;13.95;7.60;;;;;;;36.73;49.33;160863.80;1656138;86;21197;-81
2021/05/29 00:45:31;;;;;;;12.00;7.40;;;;;;;36.71;49.25;160858.44;1656622;86;21229;-81
2021/05/29 00:48:04;;;;;;;10.08;6.75;;;;;;;36.68;49.42;160850.44;1656131;86;21158;-81
2021/05/29 00:50:47;;;;;;;9.73;6.78;;;;;;;36.40;49.91;160775.42;1662813;84;21792;-81
2021/05/29 00:53:11;;;;;;;10.68;7.40;;;;;;;36.48;49.99;160796.88;1685398;85;21742;-81
2021/05/29 00:55:43;;;;;;;11.22;7.05;;;;;;;36.41;50.13;160778.09;1650618;86;21198;-81
2021/05/29 00:58:15;;;;;;;8.85;6.60;;;;;;;36.45;50.12;160788.88;1669237;85;21202;-80
2021/05/29 01:00:48;;;;;;;9.03;6.58;;;;;;;36.41;50.22;160778.09;1685382;85;21202;-81
2021/05/29 01:03:20;;;;;;;8.85;6.95;;;;;;;36.38;50.34;160770.06;1685539;85;21828;-82
2021/05/29 01:05:52;;;;;;;12.15;7.67;;;;;;;36.40;50.44;160774.11;1685442;85;21241;-80
2021/05/29 01:08:25;;;;;;;10.00;7.15;;;;;;;36.29;50.71;160745.98;1685382;85;21202;-81
2021/05/29 01:10:58;;;;;;;11.28;7.35;;;;;;;36.29;50.83;160744.63;1685096;85;21202;-81
2021/05/29 01:13:33;;;;;;;11.08;6.85;;;;;;;36.35;50.85;160760.70;1685329;85;21270;-83
2021/05/29 01:16:30;;;;;;;9.08;7.40;;;;;;;36.33;51.03;160755.34;1685413;85;21299;-81
2021/05/29 01:19:53;;;;;;;8.73;7.28;;;;;;;36.35;51.08;160760.70;1682582;85;21245;-80
2021/05/29 01:22:54;;;;;;;9.63;6.90;;;;;;;36.28;51.38;160742.00;1685141;85;21225;-81
2021/05/29 01:25:41;;;;;;;9.83;7.53;;;;;;;36.42;51.11;160780.78;1685426;85;21289;-81
2021/05/29 01:28:17;;;;;;;10.72;7.90;;;;;;;36.45;51.11;160788.88;1685046;85;21197;-80
2021/05/29 01:31:01;;;;;;;10.53;8.08;;;;;;;36.42;51.13;160779.41;1685334;85;21249;-83
2021/05/29 01:33:36;;;;;;;12.00;8.18;;;;;;;36.44;51.13;160786.19;1685514;85;21336;-80
2021/05/29 01:36:10;;;;;;;12.45;8.48;;;;;;;36.61;50.96;160830.36;1685360;85;21249;-80
2021/05/29 01:38:43;;;;;;;12.60;8.50;;;;;;;36.63;50.77;160837.03;1685346;85;21194;-80
2021/05/29 01:41:16;;;;;;;10.65;8.40;;;;;;;36.65;50.66;160842.39;1685346;85;21259;-81
2021/05/29 01:43:49;;;;;;;12.13;8.60;;;;;;;36.63;50.72;160835.72;1685264;85;21258;-81
2021/05/29 01:46:23;;;;;;;12.93;9.15;;;;;;;36.62;50.63;160833.03;1685190;85;21202;-81
2021/05/29 01:48:55;;;;;;;10.15;8.18;;;;;;;36.48;50.95;160795.56;1685068;85;21743;-80
2021/05/29 01:51:28;;;;;;;12.47;8.75;;;;;;;36.53;51.01;160808.91;1685204;85;21253;-81
2021/05/29 01:54:00;;;;;;;12.68;8.55;;;;;;;36.59;50.92;160825.00;1684819;85;21281;-82
2021/05/29 01:56:34;;;;;;;12.95;9.13;;;;;;;36.62;50.89;160834.34;1684802;84;21253;-81
2021/05/29 01:59:06;;;;;;;12.93;8.98;;;;;;;36.62;50.84;160833.03;1684946;85;21875;-81
2021/05/29 02:01:38;;;;;;;13.68;9.68;;;;;;;36.63;50.77;160837.03;1685033;84;21344;-81
2021/05/29 02:04:11;;;;;;;12.25;8.60;;;;;;;36.75;50.43;160869.16;1684750;85;21186;-81
2021/05/29 02:06:44;;;;;;;14.65;9.38;;;;;;;36.70;50.61;160855.75;1684695;85;21179;-81
2021/05/29 02:09:16;;;;;;;11.68;8.13;;;;;;;36.74;50.58;160865.16;1684903;84;22488;-81
2021/05/29 02:11:48;;;;;;;13.18;8.60;;;;;;;36.65;50.74;160842.39;1684985;84;21883;-83
2021/05/29 02:14:20;;;;;;;16.45;8.85;;;;;;;36.82;50.53;160887.88;1684978;84;21785;-81
2021/05/29 02:16:53;;;;;;;13.40;8.48;;;;;;;36.87;50.33;160901.28;1684869;85;21428;-81
2021/05/29 02:19:25;;;;;;;13.13;9.05;;;;;;;36.74;50.57;160865.16;1684621;85;21768;-81
2021/05/29 02:21:57;;;;;;;15.95;9.43;;;;;;;36.73;50.64;160862.48;1685124;85;21289;-82
2021/05/29 02:24:29;;;;;;;14.15;9.95;;;;;;;36.63;50.93;160837.03;1684824;85;21234;-81
2021/05/29 02:27:02;;;;;;;16.02;10.80;;;;;;;36.69;50.89;160851.75;1684681;85;21352;-81
2021/05/29 02:29:34;;;;;;;14.87;10.03;;;;;;;36.61;51.13;160831.67;1684738;85;21202;-81
2021/05/29 02:32:07;;;;;;;15.95;10.25;;;;;;;36.80;51.07;160881.20;1684785;84;21337;-81
2021/05/29 02:34:39;;;;;;;15.25;10.90;;;;;;;36.89;50.87;160906.66;1684899;85;21440;-81
2021/05/29 02:37:12;;;;;;;14.85;10.35;;;;;;;36.87;50.94;160899.92;1684924;84;21336;-81
2021/05/29 02:39:44;;;;;;;20.55;11.08;;;;;;;36.88;50.99;160902.59;1684721;85;21340;-80
2021/05/29 02:42:16;;;;;;;17.75;11.28;;;;;;;36.85;51.17;160895.92;1684870;83;21384;-81
2021/05/29 02:44:49;;;;;;;19.12;11.33;;;;;;;36.94;51.02;160918.75;1684719;85;21283;-81
2021/05/29 02:47:21;;;;;;;15.48;10.70;;;;;;;36.95;51.05;160921.42;1684655;84;21329;-80
2021/05/29 02:49:53;;;;;;;17.02;10.30;;;;;;;36.91;51.25;160912.06;1685134;84;21226;-81
2021/05/29 02:52:26;;;;;;;15.65;10.05;;;;;;;36.86;51.34;160898.61;1684761;84;21439;-80
2021/05/29 02:54:58;;;;;;;16.00;9.88;;;;;;;36.83;51.46;160889.25;1684667;85;21941;-81
2021/05/29 02:57:30;;;;;;;16.90;9.83;;;;;;;36.89;51.44;160905.28;1684904;85;21380;-81
2021/05/29 03:00:04;;;;;;;14.55;10.18;;;;;;;36.85;51.58;160894.61;1684792;84;21440;-80
2021/05/29 03:02:37;;;;;;;13.85;9.55;;;;;;;36.88;51.62;160903.97;1684766;85;21732;-81
2021/05/29 03:05:11;;;;;;;13.93;8.90;;;;;;;36.91;51.53;160910.70;1684628;85;21364;-80
2021/05/29 03:07:45;;;;;;;13.25;8.55;;;;;;;36.86;51.71;160898.61;1685030;85;21322;-80
2021/05/29 03:10:18;;;;;;;14.15;9.40;;;;;;;36.84;51.77;160893.25;1684881;85;21440;-80
2021/05/29 03:12:50;;;;;;;14.18;8.63;;;;;;;36.89;51.78;160905.28;1684696;85;21668;-80
2021/05/29 03:15:24;;;;;;;15.25;8.95;;;;;;;36.97;51.56;160928.11;1684681;85;21371;-80
2021/05/29 03:17:58;;;;;;;13.13;8.45;;;;;;;36.97;51.50;160926.80;1684925;85;21841;-80
2021/05/29 03:20:31;;;;;;;11.57;8.50;;;;;;;36.90;51.76;160909.39;1684807;85;21261;-80
2021/05/29 03:23:05;;;;;;;13.50;8.90;;;;;;;36.94;51.69;160918.75;1684682;85;21280;-81
2021/05/29 03:25:37;;;;;;;12.23;8.05;;;;;;;37.08;51.56;160957.56;1684703;85;21245;-80
2021/05/29 03:28:10;;;;;;;13.03;8.05;;;;;;;37.09;51.59;160960.23;1684857;85;21242;-80
2021/05/29 03:30:43;;;;;;;11.73;8.25;;;;;;;37.15;51.67;160976.33;1686428;85;21788;-80
2021/05/29 03:33:15;;;;;;;9.53;7.12;;;;;;;37.12;51.86;160968.28;1684933;85;21816;-80
2021/05/29 03:35:48;;;;;;;11.73;6.58;;;;;;;37.22;51.77;160995.06;1684679;84;21175;-81
2021/05/29 03:38:21;;;;;;;9.95;7.35;;;;;;;37.27;51.43;161009.78;1684855;84;21226;-81
2021/05/29 03:40:55;;;;;;;10.23;7.05;;;;;;;37.14;51.69;160974.97;1683953;85;21281;-80
2021/05/29 03:43:27;;;;;;;13.68;7.70;;;;;;;37.06;52.19;160953.56;1683540;85;21829;-81
2021/05/29 03:46:00;;;;;;;10.78;6.90;;;;;;;36.98;52.45;160930.78;1683467;85;21554;-81
2021/05/29 03:48:36;;;;;;;12.70;7.35;;;;;;;37.13;52.21;160972.28;1683425;85;21400;-81
2021/05/29 03:51:08;;;;;;;9.78;6.67;;;;;;;37.17;51.97;160983.00;1683586;85;21375;-81
2021/05/29 03:53:40;;;;;;;11.85;7.50;;;;;;;37.11;52.03;160965.59;1684952;85;21254;-80
2021/05/29 03:56:13;;;;;;;12.28;6.92;;;;;;;37.15;52.14;160976.33;1684811;84;21944;-81
2021/05/29 03:58:45;;;;;;;10.00;6.97;;;;;;;37.24;52.22;161000.42;1684927;85;21938;-81
2021/05/29 04:01:17;;;;;;;10.03;6.85;;;;;;;37.24;52.58;161000.42;1684845;85;21205;-81
2021/05/29 04:03:50;;;;;;;11.10;6.17;;;;;;;37.15;52.86;160976.33;1684851;85;21432;-80
2021/05/29 04:06:22;;;;;;;10.13;6.67;;;;;;;37.05;53.30;160950.87;1684710;85;21431;-80
2021/05/29 04:08:55;;;;;;;14.40;6.85;;;;;;;37.02;53.68;160941.52;1684848;84;21210;-80
2021/05/29 04:11:28;;;;;;;10.40;6.20;;;;;;;37.02;53.51;160941.52;1684813;85;21376;-80
2021/05/29 04:14:00;;;;;;;8.35;5.72;;;;;;;37.05;53.57;160950.87;1684791;85;21308;-81
2021/05/29 04:16:32;;;;;;;10.15;6.80;;;;;;;37.01;53.72;160938.83;1661524;85;21365;-81
2021/05/29 04:19:06;;;;;;;8.65;5.42;;;;;;;37.08;53.50;160957.56;1684776;85;21804;-80
2021/05/29 04:21:38;;;;;;;8.60;6.00;;;;;;;36.88;54.13;160902.59;1684904;85;21947;-80
2021/05/29 04:24:11;;;;;;;10.30;6.35;;;;;;;36.74;54.57;160865.16;1684620;85;21332;-80
2021/05/29 04:26:43;;;;;;;7.17;5.83;;;;;;;36.76;54.64;160871.84;1684814;85;21879;-82
2021/05/29 04:29:15;;;;;;;10.35;6.22;;;;;;;36.77;54.63;160873.16;1684107;84;21868;-81
2021/05/29 04:31:48;;;;;;;9.75;6.55;;;;;;;36.66;54.85;160843.72;1683680;85;21824;-80
2021/05/29 04:34:20;;;;;;;7.42;5.83;;;;;;;36.49;55.33;160798.23;1657458;86;21721;-80
2021/05/29 04:36:53;;;;;;;9.45;6.28;;;;;;;36.49;55.51;160798.23;1657126;86;21508;-81
2021/05/29 04:39:25;;;;;;;9.43;6.20;;;;;;;36.62;55.63;160834.34;1657191;86;21463;-81
2021/05/29 04:41:58;;;;;;;8.35;6.45;;;;;;;36.82;54.77;160887.88;1657244;86;21262;-80
2021/05/29 04:44:30;;;;;;;10.30;6.72;;;;;;;36.56;55.19;160818.31;1661957;85;21238;-81
2021/05/29 04:47:03;;;;;;;12.20;7.97;;;;;;;36.46;55.45;160790.19;1684788;85;21230;-81
2021/05/29 04:49:36;;;;;;;9.95;6.70;;;;;;;36.53;55.42;160808.91;1684764;83;21396;-80
2021/05/29 04:52:08;;;;;;;11.53;7.42;;;;;;;36.34;55.71;160759.34;1684553;83;21196;-80
2021/05/29 04:54:41;;;;;;;15.00;7.37;;;;;;;36.26;55.70;160736.62;1698750;83;21348;-80
2021/05/29 04:57:14;;;;;;;8.43;6.75;;;;;;;36.33;55.84;160755.34;1684888;84;21241;-83
2021/05/29 04:59:46;;;;;;;8.90;5.85;;;;;;;36.39;55.61;160771.44;1684197;85;21704;-81
2021/05/29 05:02:18;;;;;;;8.78;5.55;;;;;;;36.46;55.47;160790.19;1685219;85;21213;-80
2021/05/29 05:04:51;;;;;;;6.83;5.20;;;;;;;36.55;55.48;160815.64;1685504;85;21488;-81
2021/05/29 05:07:23;;;;;;;6.95;4.37;;;;;;;36.61;55.14;160830.36;1685541;84;21910;-80
2021/05/29 05:09:56;;;;;;;3.65;3.00;;;;;;;36.54;55.00;160811.59;1684625;85;21687;-80
2021/05/29 05:12:28;;;;;;;3.37;2.50;;;;;;;36.63;54.52;160837.03;1683593;85;21701;-82
2021/05/29 05:15:00;;;;;;;3.17;2.25;;;;;;;36.63;54.08;160835.72;1685481;85;21756;-82
2021/05/29 05:17:33;;;;;;;2.50;2.22;;;;;;;36.53;54.11;160808.91;1685388;85;21222;-80
2021/05/29 05:20:06;;;;;;;3.25;2.25;;;;;;;36.69;53.43;160853.08;1685482;84;21225;-83
2021/05/29 05:22:38;;;;;;;4.42;2.50;;;;;;;36.63;53.23;160835.72;1685498;84;21202;-80
2021/05/29 05:25:12;;;;;;;4.83;2.85;;;;;;;36.61;52.92;160830.36;1684905;85;21749;-82
2021/05/29 05:27:45;;;;;;;3.33;2.52;;;;;;;36.65;52.55;160842.39;1683798;84;21206;-82
2021/05/29 05:30:18;;;;;;;7.33;3.22;;;;;;;36.70;52.26;160854.44;1667959;85;21372;-80
2021/05/29 05:32:50;;;;;;;4.37;3.27;;;;;;;36.36;52.88;160763.39;1678811;85;21214;-80
2021/05/29 05:35:24;;;;;;;6.10;4.05;;;;;;;36.33;52.69;160756.72;1665316;85;21181;-81
2021/05/29 05:37:56;;;;;;;6.85;5.08;;;;;;;36.26;52.58;160737.94;1657620;85;21257;-81
2021/05/29 05:40:28;;;;;;;7.12;4.60;;;;;;;36.30;52.36;160748.67;1680899;85;21174;-81
2021/05/29 05:43:01;;;;;;;6.87;5.37;;;;;;;36.22;52.55;160727.28;1687463;83;21867;-79
2021/05/29 05:45:33;;;;;;;8.55;5.53;;;;;;;36.19;52.50;160717.86;1678380;85;21210;-83
2021/05/29 05:48:07;;;;;;;7.87;5.85;;;;;;;36.23;52.12;160729.91;1674275;85;21229;-81
2021/05/29 05:50:52;;;;;;;7.17;5.72;;;;;;;36.14;52.44;160704.52;1667612;85;21210;-80
2021/05/29 05:53:13;;;;;;;6.10;4.62;;;;;;;36.22;52.33;160727.28;1676159;85;21251;-83
2021/05/29 05:55:46;;;;;;;6.50;5.12;;;;;;;36.24;52.22;160731.27;1681945;85;21249;-81
2021/05/29 05:58:19;;;;;;;6.08;4.70;;;;;;;36.24;52.16;160732.58;1682026;85;21210;-81
2021/05/29 06:00:51;;;;;;;4.47;3.67;;;;;;;36.30;51.98;160748.67;1681804;85;21182;-81
2021/05/29 06:03:24;;;;;;;4.87;3.45;;;;;;;36.36;51.60;160764.69;1683063;84;21217;-81
2021/05/29 06:05:57;;;;;;;5.55;2.60;;;;;;;36.32;51.70;160752.66;1677627;84;21221;-83
2021/05/29 06:08:29;;;;;;;4.53;2.37;;;;;;;36.44;51.33;160786.19;1683001;84;21256;-82
2021/05/29 06:11:01;;;;;;;2.77;2.10;;;;;;;36.36;51.47;160764.69;1671748;83;21745;-81
2021/05/29 06:21:36;;;;;;;2.50;2.30;;;;;;;36.24;51.28;160732.58;1676039;85;21390;-82
2021/05/29 06:24:09;;;;;;;2.87;2.15;;;;;;;36.13;50.94;160703.16;1656761;84;21309;-83
2021/05/29 06:26:41;;;;;;;4.25;2.00;;;;;;;36.19;51.15;160717.86;1684289;83;21215;-84
2021/05/29 06:29:13;;;;;;;2.25;1.70;;;;;;;36.28;50.65;160742.00;1680027;84;21492;-80
2021/05/29 06:31:47;;;;;;;3.05;2.10;;;;;;;36.23;50.55;160729.91;1685857;83;21731;-84
2021/05/29 06:34:19;;;;;;;3.25;2.10;;;;;;;36.09;50.89;160691.11;1675474;85;21661;-81
2021/05/29 06:36:52;;;;;;;1.92;1.67;;;;;;;36.07;50.72;160684.44;1683163;83;21671;-80
2021/05/29 06:39:25;;;;;;;1.85;1.50;;;;;;;35.76;51.64;160602.78;1681598;84;21263;-79
2021/05/29 06:41:58;;;;;;;2.45;1.47;;;;;;;35.92;51.22;160644.23;1681834;84;21353;-80
2021/05/29 06:44:32;;;;;;;2.70;1.22;;;;;;;36.08;50.96;160689.80;1681389;85;21332;-79
2021/05/29 06:47:04;;;;;;;3.10;1.50;;;;;;;36.28;50.52;160743.31;1683341;84;21721;-80
2021/05/29 06:49:38;;;;;;;1.35;1.20;;;;;;;36.27;50.32;160739.31;1680069;85;21374;-80
2021/05/29 06:52:18;;;;;;;1.98;1.30;;;;;;;36.23;50.43;160729.91;1683819;85;21190;-80
2021/05/29 07:00:19;;;;;;;1.92;1.30;;;;;;;36.22;50.76;160727.28;1683209;84;21387;-82
2021/05/29 07:02:51;;;;;;;2.05;1.15;;;;;;;36.30;50.77;160748.67;1669380;85;21222;-82
2021/05/29 07:05:24;;;;;;;2.98;1.45;;;;;;;36.61;50.23;160831.67;1687926;85;21269;-81
2021/05/29 07:07:57;;;;;;;2.05;1.30;;;;;;;36.57;50.04;160821.00;1685825;84;21711;-80
2021/05/29 07:10:29;;;;;;;3.35;1.30;;;;;;;36.45;50.46;160788.88;1687263;85;21192;-80
2021/05/29 07:13:02;;;;;;;2.15;1.20;;;;;;;36.26;50.98;160736.62;1686470;85;21224;-80
2021/05/29 07:15:38;;;;;;;1.57;1.02;;;;;;;36.22;51.16;160727.28;1688179;84;21409;-80
2021/05/29 07:18:15;;;;;;;1.62;1.05;;;;;;;36.42;50.86;160780.78;1689149;84;21536;-80
2021/05/29 07:20:46;;;;;;;2.58;1.30;;;;;;;36.43;51.00;160783.47;1654420;86;21883;-81
2021/05/29 07:23:19;;;;;;;1.95;1.32;;;;;;;36.44;51.06;160786.19;1682591;84;21346;-82
2021/05/29 07:25:51;;;;;;;1.60;1.17;;;;;;;36.63;50.56;160835.72;1676694;84;21834;-81
2021/05/29 07:28:24;;;;;;;1.98;1.20;;;;;;;36.79;49.89;160879.87;1677356;85;21377;-80
2021/05/29 07:30:56;;;;;;;6.30;1.80;;;;;;;36.69;49.77;160853.08;1676413;85;21370;-80
2021/05/29 07:33:29;;;;;;;1.80;1.05;;;;;;;36.74;49.46;160865.16;1654532;86;21717;-80
2021/05/29 07:36:01;;;;;;;0.90;0.90;;;;;;;36.43;49.37;160783.47;1629357;86;21959;-80
2021/05/29 07:38:34;;;;;;;1.02;0.90;;;;;;;36.56;49.40;160818.31;1638752;86;21245;-80
2021/05/29 07:41:06;;;;;;;2.47;1.30;;;;;;;36.49;49.28;160799.55;1654194;86;21234;-82
2021/05/29 07:43:39;;;;;;;1.85;1.30;;;;;;;36.59;48.95;160826.31;1653544;86;21253;-80
2021/05/29 07:46:12;;;;;;;2.02;1.45;;;;;;;36.56;49.00;160816.95;1634019;86;21171;-79
2021/05/29 07:48:45;;;;;;;2.47;1.40;;;;;;;36.47;49.09;160792.88;1629944;86;21666;-84
2021/05/29 07:51:18;;;;;;;1.72;1.10;;;;;;;36.61;48.61;160831.67;1633462;86;21206;-80
2021/05/29 07:53:50;;;;;;;1.40;1.20;;;;;;;36.46;48.98;160791.50;1650293;86;21202;-80
2021/05/29 07:56:23;;;;;;;1.45;1.00;;;;;;;36.66;48.66;160845.08;1654324;86;21282;-82
2021/05/29 07:58:55;;;;;;;4.62;1.30;;;;;;;36.68;48.81;160849.08;1654114;87;21254;-81
2021/05/29 08:01:29;;;;;;;2.35;1.27;;;;;;;36.64;48.47;160838.34;1640519;87;21768;-82
2021/05/29 08:04:01;;;;;;;1.75;1.00;;;;;;;36.84;48.56;160893.25;1629127;88;21721;-79
2021/05/29 08:06:38;;;;;;;1.37;1.20;;;;;;;36.69;49.17;160853.08;1629300;88;21367;-79
2021/05/29 08:09:11;;;;;;;2.77;1.10;;;;;;;36.77;49.32;160874.52;1629065;88;21306;-79
2021/05/29 08:11:43;;;;;;;1.87;1.20;;;;;;;36.72;49.24;160861.12;1638195;85;21201;-80
2021/05/29 08:14:17;;;;;;;1.35;1.17;;;;;;;36.79;49.09;160879.87;1639935;85;21294;-80
2021/05/29 08:16:51;;;;;;;3.52;1.30;;;;;;;36.98;48.52;160930.78;1636268;85;21229;-80
2021/05/29 08:19:23;;;;;;;3.72;1.87;;;;;;;36.95;48.32;160921.42;1635238;85;21388;-81
2021/05/29 08:21:56;;;;;;;2.92;2.08;;;;;;;36.96;47.86;160925.42;1636909;85;21356;-80
2021/05/29 08:24:30;;;;;;;2.22;1.72;;;;;;;36.99;47.50;160932.09;1631200;86;21412;-81
2021/05/29 08:27:02;;;;;;;2.45;1.37;;;;;;;36.99;47.21;160933.47;1633613;85;21262;-80
2021/05/29 08:29:35;;;;;;;4.20;1.82;;;;;;;37.01;47.28;160938.83;1635772;85;21445;-81
2021/05/29 08:32:08;;;;;;;3.30;1.60;;;;;;;36.98;47.13;160930.78;1636036;85;22466;-81
2021/05/29 08:34:41;;;;;;;2.12;1.37;;;;;;;37.00;47.02;160936.16;1635267;86;21298;-80
2021/05/29 08:37:14;;;;;;;2.25;1.40;;;;;;;37.07;46.66;160954.87;1635851;86;21792;-81
2021/05/29 08:39:47;;;;;;;2.80;1.80;;;;;;;37.10;46.62;160962.92;1633504;86;21380;-79
2021/05/29 08:42:20;;;;;;;2.08;1.25;;;;;;;37.23;46.52;160999.06;1640176;85;21302;-83
2021/05/29 08:44:58;;;;;;;3.30;1.65;;;;;;;37.20;46.60;160989.69;1634754;85;21843;-81
2021/05/29 08:47:29;;;;;;;1.55;1.30;;;;;;;37.16;46.81;160980.33;1637929;86;21273;-83
2021/05/29 08:50:01;;;;;;;2.08;1.30;;;;;;;37.46;46.47;161060.70;1655318;86;21230;-82
2021/05/29 08:52:37;;;;;;;3.60;1.50;;;;;;;37.25;46.65;161004.41;1656322;86;21341;-81
2021/05/29 08:55:15;;;;;;;1.32;1.22;;;;;;;37.15;46.84;160976.33;1656911;86;21289;-81
2021/05/29 08:57:55;;;;;;;2.12;1.47;;;;;;;37.18;46.83;160984.33;1656859;86;21400;-81
2021/05/29 09:00:25;;;;;;;2.83;1.50;;;;;;;37.15;46.74;160977.64;1658412;86;21427;-82
2021/05/29 09:03:11;;;;;;;2.83;1.57;;;;;;;37.19;46.46;160988.37;1666778;86;21234;-81
2021/05/29 09:05:52;;;;;;;2.77;1.37;;;;;;;37.15;46.55;160977.64;1666832;86;21351;-81
2021/05/29 09:08:26;;;;;;;3.22;1.40;;;;;;;37.07;46.51;160954.87;1666849;86;21340;-81
2021/05/29 09:11:00;;;;;;;2.65;1.60;;;;;;;37.20;46.24;160991.06;1666386;85;21238;-81
2021/05/29 09:13:33;;;;;;;3.52;2.12;;;;;;;37.18;46.25;160984.33;1666893;86;21206;-81
2021/05/29 09:16:07;;;;;;;2.52;1.65;;;;;;;37.25;45.82;161003.09;1667021;86;22475;-80
2021/05/29 09:18:51;;;;;;;4.67;1.90;;;;;;;37.27;45.55;161008.41;1666865;86;21241;-80
2021/05/29 09:21:30;;;;;;;2.90;1.67;;;;;;;37.22;45.48;160995.06;1666564;85;21221;-81
2021/05/29 09:24:07;;;;;;;3.42;1.92;;;;;;;37.20;45.48;160989.69;1666809;86;21308;-81
2021/05/29 09:26:51;;;;;;;2.77;1.70;;;;;;;37.15;45.48;160976.33;1667044;86;21855;-81
2021/05/29 09:29:30;;;;;;;2.37;1.55;;;;;;;37.30;45.28;161016.47;1667000;86;21721;-81
2021/05/29 09:32:05;;;;;;;5.12;1.65;;;;;;;37.30;45.53;161016.47;1666917;86;21667;-81
2021/05/29 09:34:49;;;;;;;3.12;1.67;;;;;;;37.38;45.53;161039.28;1666913;86;21356;-81
2021/05/29 09:37:28;;;;;;;3.35;1.82;;;;;;;37.35;45.50;161029.94;1666670;86;21277;-81
2021/05/29 09:40:07;;;;;;;4.90;1.60;;;;;;;37.34;45.37;161028.56;1667000;86;21356;-81
2021/05/29 09:42:42;;;;;;;4.15;1.90;;;;;;;37.40;45.15;161043.28;1666974;86;21221;-81
2021/05/29 09:45:25;;;;;;;3.80;1.60;;;;;;;37.34;45.18;161027.19;1636793;86;21724;-81
2021/05/29 09:48:20;;;;;;;2.05;1.27;;;;;;;37.29;45.14;161015.14;1667001;86;21321;-82
2021/05/29 09:51:11;;;;;;;2.87;1.37;;;;;;;37.44;45.21;161055.33;1666642;86;21222;-81
2021/05/29 09:53:45;;;;;;;;;;;;;;;37.41;45.62;161045.97;1669268;86;21399;-82
2021/05/29 09:56:37;;;;;;;1.45;1.10;;;;;;;37.48;45.60;161066.06;1666818;86;20231;-81
2021/05/29 09:59:17;;;;;;;1.32;1.20;;;;;;;37.62;45.24;161103.56;1666667;86;21254;-80
2021/05/29 10:01:52;;;;;;;2.15;1.40;;;;;;;37.59;44.87;161095.53;1663065;86;21369;-80
2021/05/29 10:04:39;;;;;;;4.05;1.50;;;;;;;37.68;44.99;161119.63;1656971;86;21655;-81
2021/05/29 10:07:14;;;;;;;1.65;1.42;;;;;;;37.64;45.14;161107.58;1656719;86;21344;-81
2021/05/29 10:09:47;;;;;;;3.52;1.57;;;;;;;37.67;45.36;161116.98;1656642;86;21251;-81
2021/05/29 10:12:20;;;;;;;1.57;1.40;;;;;;;37.86;44.76;161166.55;1656677;86;21294;-81
2021/05/29 10:14:52;;;;;;;2.70;1.40;;;;;;;37.89;44.52;161174.59;1656655;86;21459;-81
2021/05/29 10:17:24;;;;;;;1.77;1.55;;;;;;;37.85;44.40;161165.23;1632766;86;21250;-81
2021/05/29 10:19:57;;;;;;;2.65;1.40;;;;;;;37.94;44.41;161188.02;1656668;86;21234;-81
2021/05/29 10:22:30;;;;;;;1.95;1.45;;;;;;;37.98;44.36;161200.06;1656708;86;21223;-81
2021/05/29 10:25:04;;;;;;;2.08;1.52;;;;;;;38.05;44.17;161218.81;1656646;86;21352;-81
2021/05/29 10:27:36;;;;;;;4.22;1.60;;;;;;;38.15;43.87;161245.59;1656946;86;21389;-82
2021/05/29 10:30:12;;;;;;;4.37;1.77;;;;;;;37.88;44.24;161173.28;1656729;86;21202;-81
2021/05/29 10:33:04;;;;;;;4.20;1.90;;;;;;;37.93;44.20;161186.66;1656645;86;21250;-81
2021/05/29 10:35:42;;;;;;;2.27;1.72;;;;;;;37.91;44.25;161181.28;1619363;86;21274;-82
2021/05/29 10:38:15;;;;;;;2.70;1.50;;;;;;;37.77;44.54;161142.41;1656923;86;21883;-81
2021/05/29 10:40:51;;;;;;;4.80;2.33;;;;;;;37.69;44.68;161120.98;1656720;86;21567;-81
2021/05/29 10:43:33;;;;;;;3.33;1.90;;;;;;;37.81;44.57;161153.19;1656990;86;21214;-81
2021/05/29 10:46:09;;;;;;;3.70;1.47;;;;;;;37.67;44.76;161115.63;1656598;86;21215;-81
2021/05/29 10:48:50;;;;;;;2.42;1.67;;;;;;;38.14;44.19;161242.91;1656881;86;21761;-81
2021/05/29 10:51:22;;;;;;;2.98;1.90;;;;;;;37.82;44.75;161157.19;1656964;86;21368;-81
2021/05/29 10:53:56;;;;;;;1.45;1.35;;;;;;;38.92;43.00;161452.11;1592980;86;21693;-81
2021/05/29 10:56:30;;;;;;;2.30;1.30;;;;;;;40.12;41.31;161778.09;1656783;86;21686;-81
2021/05/29 10:59:19;;;;;;;2.20;1.35;;;;;;;40.51;40.48;161882.77;1656944;86;21388;-82
2021/05/29 11:01:55;;;;;;;2.08;1.52;;;;;;;40.39;40.43;161850.61;1656590;86;21344;-81
2021/05/29 11:04:27;;;;;;;2.05;1.30;;;;;;;40.32;40.21;161831.75;1652438;85;22400;-79
2021/05/29 11:07:19;;;;;;;2.20;1.20;;;;;;;40.46;39.57;161868.00;1651929;87;21257;-79
2021/05/29 11:09:56;;;;;;;3.52;1.60;;;;;;;40.37;39.41;161843.88;1617828;88;21309;-79
2021/05/29 11:12:49;;;;;;;1.65;1.50;;;;;;;40.44;39.17;161862.69;1621633;86;21769;-79
2021/05/29 11:15:24;;;;;;;5.00;1.60;;;;;;;40.86;38.60;161976.75;1660903;86;21338;-79
2021/05/29 11:18:08;;;;;;;1.62;1.45;;;;;;;40.68;38.65;161927.09;1638056;86;21198;-80
2021/05/29 11:21:06;;;;;;;2.45;1.30;;;;;;;40.74;38.40;161944.59;1660981;85;21191;-79
2021/05/29 11:23:38;;;;;;;4.50;1.25;;;;;;;40.58;38.39;161900.22;1661184;85;21329;-78
2021/05/29 11:26:10;;;;;;;3.95;1.50;;;;;;;40.99;37.88;162011.66;1660323;86;21214;-82
2021/05/29 11:28:45;;;;;;;1.80;1.40;;;;;;;40.49;37.80;161876.06;1660849;86;21816;-81
2021/05/29 11:31:19;;;;;;;2.37;1.42;;;;;;;40.64;37.57;161917.66;1660190;86;21229;-82
2021/05/29 11:33:55;;;;;;;1.67;1.20;;;;;;;40.21;37.74;161802.23;1660290;86;21211;-82
2021/05/29 11:36:32;;;;;;;2.37;1.85;;;;;;;40.76;36.86;161948.59;1660862;86;21214;-83
2021/05/29 11:39:13;;;;;;;3.05;1.95;;;;;;;41.21;36.54;162070.75;1660742;86;21201;-85
2021/05/29 11:41:45;;;;;;;2.77;1.92;;;;;;;40.68;37.06;161928.41;1660906;86;21256;-82
2021/05/29 11:44:23;;;;;;;3.22;1.70;;;;;;;41.30;36.90;162096.28;1660757;86;21220;-83
2021/05/29 11:46:55;;;;;;;1.87;1.60;;;;;;;41.97;35.91;162276.30;1658487;86;21250;-83
2021/05/29 11:49:37;;;;;;;3.22;1.42;;;;;;;42.36;35.22;162382.45;1660844;86;21197;-83
2021/05/29 11:52:10;;;;;;;1.70;1.40;;;;;;;42.14;35.27;162323.30;1660923;86;21252;-83
2021/05/29 11:54:42;;;;;;;2.62;1.85;;;;;;;42.18;35.00;162334.06;1653610;86;21903;-83
2021/05/29 11:57:14;;;;;;;2.83;1.90;;;;;;;42.49;34.62;162416.06;1661169;86;21344;-83
2021/05/29 11:59:48;;;;;;;3.90;1.80;;;;;;;42.08;35.02;162307.20;1661804;86;21737;-83
2021/05/29 12:02:20;;;;;;;2.17;1.72;;;;;;;40.83;35.82;161967.37;1660836;86;21269;-83
2021/05/29 12:04:53;;;;;;;2.45;2.08;;;;;;;40.28;36.27;161819.69;1682337;84;21392;-83
2021/05/29 12:07:27;;;;;;;2.80;2.02;;;;;;;40.45;36.19;161865.38;1691983;84;21388;-83
2021/05/29 12:10:01;;;;;;;2.75;2.10;;;;;;;40.64;35.84;161917.66;1692030;85;21352;-83